createdAt,value
2022-09-07T00:01:09.697Z,78.71
2022-09-07T00:03:37.776Z,77.83
2022-09-07T00:06:10.855Z,77.39
2022-09-07T00:08:41.180Z,77.23
2022-09-07T00:11:13.454Z,76.93
2022-09-07T00:13:42.700Z,76.69
2022-09-07T00:16:12.680Z,76.73
2022-09-07T00:18:45.195Z,76.59
2022-09-07T00:21:15.718Z,76.20
2022-09-07T00:23:45.945Z,75.82
2022-09-07T00:26:15.667Z,75.55
2022-09-07T00:28:44.334Z,75.11
2022-09-07T00:31:14.208Z,75.06
2022-09-07T00:33:42.549Z,74.56
2022-09-07T00:36:10.764Z,74.10
2022-09-07T00:38:39.315Z,74.28
2022-09-07T00:41:08.998Z,74.17
2022-09-07T00:43:38.608Z,74.03
2022-09-07T00:46:08.875Z,74.06
2022-09-07T00:48:41.521Z,73.45
2022-09-07T00:51:13.140Z,74.02
2022-09-07T00:53:44.504Z,75.05
2022-09-07T00:56:14.887Z,75.78
2022-09-07T00:58:44.840Z,75.17
2022-09-07T01:01:13.080Z,74.52
2022-09-07T01:03:44.620Z,73.85
2022-09-07T01:06:17.343Z,73.95
2022-09-07T01:08:48.591Z,74.06
2022-09-07T01:11:19.495Z,73.39
2022-09-07T01:13:48.511Z,73.63
2022-09-07T01:16:27.925Z,74.86
2022-09-07T01:19:10.193Z,75.44
2022-09-07T01:21:52.408Z,75.09
2022-09-07T01:24:39.893Z,75.18
2022-09-07T01:27:59.222Z,75.14
2022-09-07T01:30:28.575Z,76.03
2022-09-07T01:33:16.242Z,76.44
2022-09-07T01:35:51.554Z,77.39
2022-09-07T01:38:26.291Z,77.00
2022-09-07T01:41:03.279Z,77.41
2022-09-07T01:43:39.023Z,79.69
2022-09-07T01:46:20.031Z,80.79
2022-09-07T01:48:53.452Z,78.96
2022-09-07T01:51:24.208Z,80.37
2022-09-07T01:53:58.128Z,80.76
2022-09-07T01:56:29.910Z,80.66
2022-09-07T01:59:04.776Z,81.00
2022-09-07T02:01:37.639Z,78.17
2022-09-07T02:04:11.127Z,78.08
2022-09-07T02:06:46.060Z,75.81
2022-09-07T02:09:19.987Z,75.08
2022-09-07T02:11:50.114Z,75.89
2022-09-07T02:14:24.620Z,77.42
2022-09-07T02:16:58.806Z,76.28
2022-09-07T02:19:31.091Z,75.10
2022-09-07T02:22:04.344Z,74.77
2022-09-07T02:24:37.717Z,73.97
2022-09-07T02:27:12.189Z,73.69
2022-09-07T02:29:41.725Z,74.04
2022-09-07T02:32:09.688Z,76.83
2022-09-07T02:34:38.322Z,79.98
2022-09-07T02:37:10.030Z,81.96
2022-09-07T02:39:38.504Z,81.74
2022-09-07T02:42:07.156Z,80.07
2022-09-07T02:44:38.399Z,79.26
2022-09-07T02:47:28.093Z,77.05
2022-09-07T02:50:10.651Z,76.26
2022-09-07T02:52:52.003Z,77.06
2022-09-07T02:55:32.880Z,76.13
2022-09-07T02:58:12.838Z,75.65
2022-09-07T03:00:46.201Z,75.25
2022-09-07T03:03:23.487Z,74.53
2022-09-07T03:05:56.132Z,76.69
2022-09-07T03:08:27.466Z,76.47
2022-09-07T03:10:55.821Z,76.24
2022-09-07T03:13:25.992Z,75.59
2022-09-07T03:15:56.251Z,76.14
2022-09-07T03:18:28.009Z,75.16
2022-09-07T03:20:56.295Z,74.69
2022-09-07T03:23:24.980Z,74.71
2022-09-07T03:25:52.971Z,74.69
2022-09-07T03:28:21.026Z,74.99
2022-09-07T03:30:48.985Z,74.82
2022-09-07T03:33:17.727Z,74.63
2022-09-07T03:35:57.503Z,74.91
2022-09-07T03:38:25.506Z,74.54
2022-09-07T03:40:59.428Z,74.96
2022-09-07T03:43:30.223Z,74.81
2022-09-07T03:45:59.777Z,74.36
2022-09-07T03:48:28.534Z,75.09
2022-09-07T03:50:59.362Z,75.07
2022-09-07T03:53:27.590Z,74.68
2022-09-07T03:55:59.823Z,75.20
2022-09-07T03:58:30.331Z,75.49
2022-09-07T04:01:00.443Z,74.88
2022-09-07T04:03:28.526Z,74.81
2022-09-07T04:05:57.333Z,75.27
2022-09-07T04:08:27.508Z,75.80
2022-09-07T04:10:57.323Z,75.60
2022-09-07T04:13:25.453Z,75.51
2022-09-07T04:15:54.053Z,75.62
2022-09-07T04:18:25.280Z,75.54
2022-09-07T04:20:53.192Z,77.02
2022-09-07T04:23:21.199Z,76.70
2022-09-07T04:25:51.148Z,80.37
2022-09-07T04:28:20.690Z,80.87
2022-09-07T04:30:48.969Z,78.91
2022-09-07T04:33:17.000Z,82.79
2022-09-07T04:35:44.882Z,85.16
2022-09-07T04:38:16.348Z,85.66
2022-09-07T04:40:44.967Z,83.17
2022-09-07T04:43:14.277Z,81.44
2022-09-07T04:45:42.627Z,79.91
2022-09-07T04:48:10.563Z,84.16
2022-09-07T04:50:38.475Z,83.32
2022-09-07T04:53:06.415Z,81.09
2022-09-07T04:55:34.326Z,81.97
2022-09-07T04:58:02.290Z,82.87
2022-09-07T05:00:32.069Z,81.28
2022-09-07T05:03:00.015Z,81.02
2022-09-07T05:05:27.900Z,81.05
2022-09-07T05:07:58.492Z,81.13
2022-09-07T05:10:26.417Z,79.67
2022-09-07T05:12:54.335Z,79.36
2022-09-07T05:15:24.375Z,78.91
2022-09-07T05:17:53.919Z,78.51
2022-09-07T05:20:21.884Z,78.05
2022-09-07T05:22:49.838Z,78.62
2022-09-07T05:25:17.780Z,79.27
2022-09-07T05:27:45.682Z,79.68
2022-09-07T05:33:04.440Z,81.55
2022-09-07T05:35:32.451Z,81.90
2022-09-07T05:38:00.380Z,82.32
2022-09-07T05:40:33.618Z,81.03
2022-09-07T05:43:04.174Z,79.86
2022-09-07T05:45:32.459Z,79.24
2022-09-07T05:48:00.383Z,78.67
2022-09-07T05:50:29.610Z,78.67
2022-09-07T05:52:57.528Z,78.11
2022-09-07T05:55:30.375Z,77.56
2022-09-07T05:57:58.777Z,78.67
2022-09-07T06:00:27.203Z,79.03
2022-09-07T06:02:55.120Z,78.13
2022-09-07T06:05:23.021Z,77.48
2022-09-07T06:07:53.095Z,77.60
2022-09-07T06:13:09.501Z,76.60
2022-09-07T06:15:37.404Z,76.73
2022-09-07T06:18:05.365Z,76.12
2022-09-07T06:20:33.258Z,75.50
2022-09-07T06:23:02.565Z,75.54
2022-09-07T06:25:30.573Z,76.38
2022-09-07T06:27:59.649Z,75.79
2022-09-07T06:30:27.582Z,75.38
2022-09-07T06:32:55.625Z,74.72
2022-09-07T06:35:23.513Z,74.75
2022-09-07T06:37:51.502Z,74.69
2022-09-07T06:40:20.787Z,73.54
2022-09-07T06:42:48.722Z,73.25
2022-09-07T06:45:19.927Z,72.08
2022-09-07T06:47:47.923Z,73.42
2022-09-07T06:50:17.202Z,72.73
2022-09-07T06:55:34.611Z,71.13
2022-09-07T06:58:03.052Z,70.68
2022-09-07T07:00:30.981Z,69.94
2022-09-07T07:02:58.959Z,69.97
2022-09-07T07:05:27.005Z,69.68
2022-09-07T07:07:56.310Z,70.65
2022-09-07T07:10:25.096Z,70.31
2022-09-07T07:12:58.003Z,70.81
2022-09-07T07:15:28.913Z,69.77
2022-09-07T07:18:05.192Z,69.56
2022-09-07T07:20:43.046Z,67.94
2022-09-07T07:23:12.092Z,68.25
2022-09-07T07:25:40.090Z,68.33
2022-09-07T07:30:58.325Z,66.73
2022-09-07T07:33:26.755Z,65.51
2022-09-07T07:35:54.672Z,65.04
2022-09-07T07:44:01.033Z,61.41
2022-09-07T07:46:32.345Z,61.50
2022-09-07T07:49:00.441Z,62.42
2022-09-07T07:51:30.909Z,61.03
2022-09-07T07:53:59.216Z,60.23
2022-09-07T07:56:29.802Z,59.26
2022-09-07T07:58:57.740Z,58.82
2022-09-07T08:01:27.250Z,56.55
2022-09-07T08:03:55.219Z,57.11
2022-09-07T08:06:23.107Z,54.94
2022-09-07T08:08:51.180Z,54.27
2022-09-07T08:11:21.988Z,54.77
2022-09-07T08:13:52.098Z,54.84
2022-09-07T08:16:20.239Z,54.22
2022-09-07T08:18:49.804Z,52.87
2022-09-07T08:21:18.225Z,52.84
2022-09-07T08:23:45.958Z,51.54
2022-09-07T08:26:13.756Z,51.38
2022-09-07T08:28:43.896Z,51.02
2022-09-07T08:31:13.532Z,50.50
2022-09-07T08:33:41.572Z,49.97
2022-09-07T08:36:14.006Z,50.64
2022-09-07T08:38:42.307Z,49.29
2022-09-07T08:41:47.188Z,50.98
2022-09-07T08:44:22.001Z,50.94
2022-09-07T08:46:54.267Z,49.17
2022-09-07T08:49:29.935Z,49.32
2022-09-07T08:52:04.365Z,49.01
2022-09-07T08:54:33.087Z,47.60
2022-09-07T08:59:58.702Z,49.17
2022-09-07T09:02:28.189Z,48.83
2022-09-07T09:07:53.785Z,47.85
2022-09-07T09:10:33.410Z,45.92
2022-09-07T09:13:07.587Z,45.66
2022-09-07T09:15:51.704Z,47.30
2022-09-07T09:18:31.497Z,46.30
2022-09-07T09:21:00.723Z,48.50
2022-09-07T09:23:37.418Z,46.50
2022-09-07T09:26:14.650Z,50.09
2022-09-07T09:28:42.794Z,47.06
2022-09-07T09:31:18.804Z,48.64
2022-09-07T09:34:08.422Z,49.58
2022-09-07T09:36:42.602Z,46.75
2022-09-07T09:39:31.722Z,48.95
2022-09-07T09:42:02.614Z,50.60
2022-09-07T09:44:35.409Z,50.91
2022-09-07T09:49:53.548Z,52.99
2022-09-07T09:52:33.672Z,51.33
2022-09-07T09:55:32.684Z,51.49
2022-09-07T10:04:01.439Z,53.63
2022-09-07T10:06:32.265Z,52.59
2022-09-07T10:09:02.449Z,52.99
2022-09-07T10:14:37.294Z,51.66
2022-09-07T10:17:14.437Z,51.47
2022-09-07T10:19:44.239Z,50.23
2022-09-07T10:22:25.749Z,48.77
2022-09-07T10:24:53.577Z,48.66
2022-09-07T10:27:31.032Z,47.81
2022-09-07T10:30:01.812Z,49.64
2022-09-07T10:32:53.125Z,51.18
2022-09-07T10:41:08.373Z,50.28
2022-09-07T10:44:03.706Z,48.65
2022-09-07T10:47:00.675Z,47.87
2022-09-07T10:49:36.186Z,49.90
2022-09-07T10:52:16.217Z,50.78
2022-09-07T10:54:52.276Z,48.92
2022-09-07T10:57:49.118Z,51.77
2022-09-07T11:00:20.741Z,51.74
2022-09-07T11:06:01.909Z,52.49
2022-09-07T11:14:27.259Z,47.86
2022-09-07T11:17:01.745Z,49.45
2022-09-07T11:19:36.256Z,49.83
2022-09-07T11:22:16.892Z,51.26
2022-09-07T11:25:29.212Z,49.88
2022-09-07T11:27:43.566Z,47.52
2022-09-07T11:30:24.673Z,47.33
2022-09-07T11:33:11.507Z,48.09
2022-09-07T11:35:48.336Z,44.63
2022-09-07T11:38:25.418Z,44.89
2022-09-07T11:41:25.493Z,43.95
2022-09-07T11:44:05.661Z,43.12
2022-09-07T11:46:41.798Z,44.43
2022-09-07T11:49:18.890Z,46.10
2022-09-07T11:51:55.213Z,47.30
2022-09-07T11:54:39.509Z,47.99
2022-09-07T11:57:26.304Z,45.51
2022-09-07T12:00:03.863Z,43.40
2022-09-07T12:03:13.155Z,44.84
2022-09-07T12:06:03.007Z,48.30
2022-09-07T12:08:44.237Z,48.79
2022-09-07T12:11:27.452Z,46.86
2022-09-07T12:14:18.833Z,48.53
2022-09-07T12:17:07.277Z,45.38
2022-09-07T12:19:35.268Z,45.83
2022-09-07T12:22:05.394Z,44.24
2022-09-07T12:24:52.393Z,43.93
2022-09-07T12:27:41.675Z,46.92
2022-09-07T12:30:51.931Z,47.67
2022-09-07T12:33:39.181Z,49.22
2022-09-07T12:36:50.243Z,47.15
2022-09-07T12:39:25.795Z,44.98
2022-09-07T12:45:38.157Z,43.74
2022-09-07T12:48:12.112Z,43.18
2022-09-07T12:50:44.267Z,42.47
2022-09-07T12:53:29.711Z,42.13
2022-09-07T12:56:16.532Z,41.68
2022-09-07T12:58:56.870Z,41.54
2022-09-07T13:01:36.392Z,42.28
2022-09-07T13:04:31.801Z,43.12
2022-09-07T13:07:25.679Z,43.08
2022-09-07T13:09:57.351Z,43.33
2022-09-07T13:15:43.592Z,44.29
2022-09-07T13:18:34.050Z,43.62
2022-09-07T13:21:30.934Z,41.81
2022-09-07T13:24:46.381Z,42.00
2022-09-07T13:27:51.825Z,40.15
2022-09-07T13:30:27.166Z,42.53
2022-09-07T13:33:43.151Z,41.97
2022-09-07T13:36:21.864Z,43.43
2022-09-07T13:38:53.110Z,42.54
2022-09-07T13:41:23.727Z,42.67
2022-09-07T13:44:00.333Z,41.94
2022-09-07T13:46:50.154Z,41.44
2022-09-07T13:49:29.876Z,41.13
2022-09-07T13:52:07.506Z,41.21
2022-09-07T13:54:50.560Z,40.85
2022-09-07T13:57:26.367Z,40.59
2022-09-07T13:59:56.480Z,41.43
2022-09-07T14:02:26.851Z,41.21
2022-09-07T14:04:57.376Z,41.32
2022-09-07T14:07:26.880Z,40.29
2022-09-07T14:10:19.578Z,39.42
2022-09-07T14:12:50.403Z,40.22
2022-09-07T14:15:28.172Z,41.62
2022-09-07T14:18:04.946Z,39.52
2022-09-07T14:20:37.933Z,42.60
2022-09-07T14:23:13.277Z,40.62
2022-09-07T14:28:36.944Z,41.31
2022-09-07T14:31:09.295Z,40.79
2022-09-07T14:33:37.515Z,40.47
2022-09-07T14:36:29.574Z,40.14
2022-09-07T14:39:04.487Z,39.65
2022-09-07T14:41:34.673Z,40.93
2022-09-07T14:44:02.937Z,40.10
2022-09-07T14:46:34.086Z,42.16
2022-09-07T14:49:04.919Z,43.16
2022-09-07T14:51:36.545Z,43.13
2022-09-07T14:54:07.000Z,41.47
2022-09-07T14:56:36.571Z,41.75
2022-09-07T14:59:28.134Z,41.39
2022-09-07T15:02:41.011Z,42.86
2022-09-07T15:05:30.785Z,42.60
2022-09-07T15:07:59.854Z,43.14
2022-09-07T15:10:41.281Z,42.66
2022-09-07T15:13:25.905Z,43.23
2022-09-07T15:15:59.205Z,42.47
2022-09-07T15:18:54.633Z,42.72
2022-09-07T15:21:28.882Z,42.40
2022-09-07T15:23:59.065Z,43.18
2022-09-07T15:29:20.632Z,41.62
2022-09-07T15:32:01.066Z,43.15
2022-09-07T15:34:29.450Z,44.20
2022-09-07T15:37:00.279Z,44.59
2022-09-07T15:39:31.129Z,44.03
2022-09-07T15:42:58.963Z,44.47
2022-09-07T15:44:47.485Z,43.92
2022-09-07T15:50:03.393Z,44.08
2022-09-07T15:52:34.741Z,43.83
2022-09-07T15:55:02.560Z,45.41
2022-09-07T15:57:48.724Z,44.65
2022-09-07T16:00:17.467Z,44.77
2022-09-07T16:03:09.411Z,44.34
2022-09-07T16:05:41.426Z,44.49
2022-09-07T16:08:26.392Z,45.15
2022-09-07T16:10:55.694Z,44.85
2022-09-07T16:13:33.870Z,44.48
2022-09-07T16:16:06.392Z,44.76
2022-09-07T16:18:47.645Z,46.17
2022-09-07T16:21:18.448Z,46.61
2022-09-07T16:23:50.627Z,45.30
2022-09-07T16:26:20.457Z,44.63
2022-09-07T16:28:52.423Z,44.42
2022-09-07T16:31:30.916Z,44.01
2022-09-07T16:33:59.140Z,44.78
2022-09-07T16:36:57.404Z,44.62
2022-09-07T16:44:04.244Z,44.31
2022-09-07T16:46:34.800Z,44.36
2022-09-07T16:49:02.979Z,45.03
2022-09-07T16:51:33.239Z,46.13
2022-09-07T16:54:01.502Z,46.22
2022-09-07T16:56:33.653Z,46.12
2022-09-07T16:59:08.656Z,46.20
2022-09-07T17:01:38.957Z,45.83
2022-09-07T17:04:11.022Z,46.53
2022-09-07T17:06:40.560Z,46.74
2022-09-07T17:09:09.065Z,46.71
2022-09-07T17:11:37.766Z,46.19
2022-09-07T17:14:07.499Z,46.64
2022-09-07T17:16:37.602Z,46.54
2022-09-07T17:21:55.367Z,47.40
2022-09-07T17:24:25.237Z,46.61
2022-09-07T17:26:53.093Z,46.24
2022-09-07T17:29:22.260Z,46.28
2022-09-07T17:34:37.985Z,47.77
2022-09-07T17:37:06.010Z,47.18
2022-09-07T17:39:33.845Z,47.53
2022-09-07T17:42:02.430Z,47.73
2022-09-07T17:44:35.999Z,47.92
2022-09-07T17:47:06.036Z,48.19
2022-09-07T17:49:33.796Z,47.83
2022-09-07T17:52:01.693Z,47.67
2022-09-07T17:54:31.864Z,47.58
2022-09-07T17:56:59.670Z,47.54
2022-09-07T18:02:17.210Z,48.12
2022-09-07T18:04:45.079Z,48.01
2022-09-07T18:07:15.686Z,50.12
2022-09-07T18:09:43.591Z,49.94
2022-09-07T18:12:11.413Z,50.66
2022-09-07T18:14:39.286Z,51.65
2022-09-07T18:17:07.125Z,51.90
2022-09-07T18:19:36.438Z,53.16
2022-09-07T18:22:04.688Z,53.83
2022-09-07T18:24:32.462Z,54.62
2022-09-07T18:27:00.309Z,56.32
2022-09-07T18:29:32.531Z,59.71
2022-09-07T18:32:02.515Z,63.75
2022-09-07T18:34:32.752Z,61.91
2022-09-07T18:37:02.407Z,61.82
2022-09-07T18:39:31.365Z,61.30
2022-09-07T18:41:59.197Z,61.83
2022-09-07T18:47:22.086Z,60.96
2022-09-07T18:49:51.849Z,64.74
2022-09-07T18:55:10.579Z,69.13
2022-09-07T18:57:38.658Z,67.98
2022-09-07T19:00:09.842Z,66.70
2022-09-07T19:02:37.680Z,65.07
2022-09-07T19:07:55.712Z,62.28
2022-09-07T19:10:23.541Z,61.50
2022-09-07T19:12:51.380Z,61.23
2022-09-07T19:15:20.440Z,62.01
2022-09-07T19:17:48.235Z,62.16
2022-09-07T19:20:16.067Z,60.98
2022-09-07T19:22:43.870Z,61.27
2022-09-07T19:25:13.253Z,60.89
2022-09-07T19:27:41.093Z,61.16
2022-09-07T19:30:10.218Z,62.36
2022-09-07T19:32:38.268Z,62.13
2022-09-07T19:35:06.536Z,62.16
2022-09-07T19:37:34.467Z,61.57
2022-09-07T19:40:02.506Z,62.22
2022-09-07T19:42:31.737Z,63.49
2022-09-07T19:45:00.083Z,63.24
2022-09-07T19:47:28.144Z,62.98
2022-09-07T19:49:58.248Z,61.58
2022-09-07T19:52:26.796Z,61.88
2022-09-07T19:54:54.640Z,63.59
2022-09-07T19:57:22.439Z,63.54
2022-09-07T19:59:53.028Z,63.28
2022-09-07T20:02:20.853Z,63.26
2022-09-07T20:04:48.861Z,63.15
2022-09-07T20:07:16.717Z,64.09
2022-09-07T20:09:50.439Z,63.96
2022-09-07T20:12:19.135Z,63.63
2022-09-07T20:14:46.931Z,63.04
2022-09-07T20:17:16.138Z,64.34
2022-09-07T20:19:44.148Z,64.66
2022-09-07T20:22:11.947Z,65.21
2022-09-07T20:24:39.969Z,65.16
2022-09-07T20:27:07.764Z,65.20
2022-09-07T20:29:35.858Z,65.63
2022-09-07T20:32:04.280Z,65.74
2022-09-07T20:34:33.767Z,66.04
2022-09-07T20:37:02.057Z,66.41
2022-09-07T20:39:29.890Z,66.40
2022-09-07T20:41:57.766Z,67.69
2022-09-07T20:44:25.579Z,69.09
2022-09-07T20:46:53.403Z,67.94
2022-09-07T20:49:21.271Z,67.22
2022-09-07T20:51:50.677Z,67.08
2022-09-07T20:54:19.104Z,66.85
2022-09-07T20:56:46.961Z,67.16
2022-09-07T20:59:15.304Z,67.84
2022-09-07T21:01:43.198Z,68.12
2022-09-07T21:04:11.033Z,68.55
2022-09-07T21:06:38.926Z,68.49
2022-09-07T21:09:08.088Z,68.46
2022-09-07T21:11:36.468Z,68.75
2022-09-07T21:14:06.908Z,68.38
2022-09-07T21:16:37.602Z,68.34
2022-09-07T21:19:07.894Z,68.58
2022-09-07T21:21:39.185Z,68.60
2022-09-07T21:24:16.812Z,68.33
2022-09-07T21:26:44.900Z,68.18
2022-09-07T21:29:18.366Z,68.01
2022-09-07T21:31:46.335Z,67.79
2022-09-07T21:34:15.424Z,67.18
2022-09-07T21:36:43.633Z,66.54
2022-09-07T21:39:14.699Z,66.88
2022-09-07T21:41:43.073Z,66.66
2022-09-07T21:44:13.385Z,65.73
2022-09-07T21:46:42.283Z,65.67
2022-09-07T21:49:10.290Z,65.19
2022-09-07T21:51:38.125Z,66.08
2022-09-07T21:54:06.058Z,66.33
2022-09-07T21:56:35.480Z,66.55
2022-09-07T21:59:04.657Z,66.88
2022-09-07T22:01:33.165Z,66.74
2022-09-07T22:04:02.569Z,67.24
2022-09-07T22:06:32.277Z,67.28
2022-09-07T22:09:01.208Z,67.81
2022-09-07T22:11:30.676Z,70.74
2022-09-07T22:14:02.659Z,71.86
2022-09-07T22:16:32.344Z,70.31
2022-09-07T22:19:00.486Z,70.29
2022-09-07T22:21:30.710Z,69.50
2022-09-07T22:24:00.578Z,71.58
2022-09-07T22:26:30.111Z,70.98
2022-09-07T22:29:00.034Z,70.01
2022-09-07T22:31:29.751Z,70.32
2022-09-07T22:33:58.463Z,70.75
2022-09-07T22:36:28.424Z,70.74
2022-09-07T22:38:57.870Z,70.82
2022-09-07T22:41:27.337Z,70.62
2022-09-07T22:43:56.034Z,72.45
2022-09-07T22:46:30.856Z,73.73
2022-09-07T22:49:00.089Z,72.66
2022-09-07T22:51:28.735Z,72.48
2022-09-07T22:53:57.859Z,71.54
2022-09-07T22:56:28.173Z,71.72
2022-09-07T22:58:58.674Z,70.52
2022-09-07T23:01:29.718Z,70.08
2022-09-07T23:03:58.081Z,71.41
2022-09-07T23:06:27.972Z,73.44
2022-09-07T23:08:57.813Z,72.65
2022-09-07T23:11:25.786Z,71.19
2022-09-07T23:13:54.649Z,71.66
2022-09-07T23:16:23.406Z,71.49
2022-09-07T23:18:52.977Z,72.86
2022-09-07T23:21:21.145Z,74.13
2022-09-07T23:23:53.154Z,73.72
2022-09-07T23:26:21.839Z,75.66
2022-09-07T23:28:52.369Z,75.85
2022-09-07T23:31:20.413Z,77.60
2022-09-07T23:33:48.718Z,76.33
2022-09-07T23:36:18.628Z,75.39
2022-09-07T23:38:47.374Z,74.97
2022-09-07T23:41:16.431Z,74.74
2022-09-07T23:43:44.756Z,75.52
2022-09-07T23:46:13.236Z,75.41
2022-09-07T23:48:41.463Z,76.00
2022-09-07T23:51:09.358Z,76.95
2022-09-07T23:53:38.635Z,79.12
2022-09-07T23:56:07.482Z,78.51
2022-09-07T23:58:37.892Z,78.13
